Time;durP1;ratioP1;P1;durP2;ratioP2;P2;SDS_P1;SDS_P2;PMS_P1;PMS_P2;Temp;Humidity;BMP_temperature;BMP_pressure;BME280_temperature;BME280_humidity;BME280_pressure;Samples;Min_cycle;Max_cycle;Signal;HPM_P1;HPM_P2
2023/07/31 00:00:34;;;;;;;12.70;8.63;;;20.60;99.90;;;;;;5090557;28;20314;-76
2023/07/31 00:03:00;;;;;;;14.80;8.45;;;20.60;99.90;;;;;;5090248;28;20478;-79
2023/07/31 00:05:25;;;;;;;14.30;8.75;;;20.60;99.90;;;;;;5090449;28;20052;-78
2023/07/31 00:07:51;;;;;;;12.82;9.10;;;20.50;99.90;;;;;;5089283;28;20527;-72
2023/07/31 00:10:17;;;;;;;14.18;8.98;;;20.60;99.90;;;;;;5092630;28;20024;-77
2023/07/31 00:12:45;;;;;;;14.35;8.80;;;20.60;99.90;;;;;;5089623;28;20024;-78
2023/07/31 00:15:11;;;;;;;14.00;8.20;;;20.60;99.90;;;;;;5090417;28;20031;-78
2023/07/31 00:21:04;;;;;;;16.20;9.00;;;20.60;99.90;;;;;;5255721;23;20075;-72
2023/07/31 00:23:30;;;;;;;13.70;9.50;;;20.50;99.90;;;;;;4887572;29;20049;-80
2023/07/31 00:25:55;;;;;;;14.85;8.85;;;20.50;99.90;;;;;;4913625;29;20087;-73
2023/07/31 00:28:21;;;;;;;13.48;8.70;;;20.50;99.90;;;;;;4897100;29;20077;-80
2023/07/31 00:30:47;;;;;;;11.63;8.60;;;20.60;99.90;;;;;;4904531;29;20469;-80
2023/07/31 00:33:13;;;;;;;13.38;9.15;;;20.50;99.90;;;;;;4910309;29;20108;-76
2023/07/31 00:35:38;;;;;;;20.33;9.15;;;20.60;99.90;;;;;;4916796;29;20032;-79
2023/07/31 00:38:04;;;;;;;14.00;9.40;;;20.60;99.90;;;;;;4902242;29;20035;-75
2023/07/31 00:40:35;;;;;;;14.02;9.45;;;20.50;99.90;;;;;;4898362;29;20047;-78
2023/07/31 00:43:01;;;;;;;13.90;9.32;;;20.40;99.90;;;;;;4909811;29;20024;-79
2023/07/31 00:45:28;;;;;;;12.25;8.52;;;20.50;99.90;;;;;;4918892;29;20075;-78
2023/07/31 00:47:54;;;;;;;11.65;8.05;;;20.50;99.90;;;;;;4920782;29;20138;-78
2023/07/31 00:50:22;;;;;;;17.85;9.25;;;20.50;99.90;;;;;;4937547;29;20099;-75
2023/07/31 00:52:47;;;;;;;12.35;9.10;;;20.40;99.90;;;;;;4917219;29;20448;-76
2023/07/31 00:55:14;;;;;;;13.40;9.30;;;20.40;99.90;;;;;;4919458;29;20027;-78
2023/07/31 00:57:41;;;;;;;15.38;9.55;;;20.40;99.90;;;;;;4936338;29;20034;-73
2023/07/31 01:00:08;;;;;;;16.48;9.77;;;20.40;99.90;;;;;;4937905;29;20035;-77
2023/07/31 01:02:35;;;;;;;13.30;8.48;;;20.30;99.90;;;;;;4917140;29;20032;-75
2023/07/31 01:05:02;;;;;;;12.85;8.63;;;20.40;99.90;;;;;;4910146;29;20472;-72
2023/07/31 01:07:50;;;;;;;14.10;8.27;;;20.40;99.90;;;;;;4936637;29;20543;-78
2023/07/31 01:10:29;;;;;;;16.08;8.75;;;20.40;99.90;;;;;;4937148;29;20079;-78
2023/07/31 01:12:57;;;;;;;13.45;8.70;;;20.30;99.90;;;;;;4937535;29;20484;-79
2023/07/31 01:15:23;;;;;;;13.18;8.07;;;20.30;99.90;;;;;;4920070;29;20030;-79
2023/07/31 01:17:49;;;;;;;15.48;9.13;;;20.40;99.90;;;;;;4920399;29;20126;-75
2023/07/31 01:20:21;;;;;;;13.73;8.52;;;20.40;99.90;;;;;;4937202;29;20063;-74
2023/07/31 01:23:24;;;;;;;15.15;8.63;;;20.40;99.90;;;;;;4913403;29;20053;-76
2023/07/31 01:26:03;;;;;;;15.63;8.55;;;20.30;99.90;;;;;;4905117;29;20037;-75
2023/07/31 01:29:00;;;;;;;14.38;8.38;;;20.30;99.90;;;;;;4936293;29;20036;-74
2023/07/31 01:31:27;;;;;;;14.73;9.25;;;20.20;99.90;;;;;;4937102;29;20028;-77
2023/07/31 01:33:57;;;;;;;14.70;9.50;;;20.20;99.90;;;;;;4919212;29;20923;-79
2023/07/31 01:36:23;;;;;;;13.00;9.02;;;20.10;99.90;;;;;;4934141;29;20032;-79
2023/07/31 01:38:50;;;;;;;12.45;8.50;;;20.10;99.90;;;;;;4932421;29;20479;-79
2023/07/31 01:41:19;;;;;;;13.57;9.20;;;20.10;99.90;;;;;;4919202;29;20672;-79
2023/07/31 01:43:48;;;;;;;12.70;8.63;;;20.10;99.90;;;;;;4919605;29;20499;-78
2023/07/31 01:46:13;;;;;;;15.80;9.32;;;20.10;99.90;;;;;;4936629;29;20023;-79
2023/07/31 01:48:39;;;;;;;13.20;8.60;;;20.10;99.90;;;;;;4916432;29;20036;-78
2023/07/31 01:51:05;;;;;;;10.65;7.72;;;20.10;99.90;;;;;;4933410;29;20074;-79
2023/07/31 01:53:32;;;;;;;18.45;9.50;;;20.00;99.90;;;;;;4915941;29;20044;-80
2023/07/31 01:55:58;;;;;;;13.95;8.15;;;20.10;99.90;;;;;;4931809;29;20037;-79
2023/07/31 01:58:23;;;;;;;14.57;8.48;;;20.10;99.90;;;;;;4936636;29;20024;-75
2023/07/31 02:00:49;;;;;;;11.85;7.70;;;20.10;99.90;;;;;;4916622;29;20377;-76
2023/07/31 02:03:15;;;;;;;11.57;8.20;;;20.10;99.90;;;;;;4916576;29;20039;-80
2023/07/31 02:05:45;;;;;;;16.77;8.18;;;20.00;99.90;;;;;;4913752;29;20090;-79
2023/07/31 02:08:12;;;;;;;13.05;8.00;;;20.10;99.90;;;;;;4916152;29;20044;-79
2023/07/31 02:10:38;;;;;;;12.27;7.88;;;20.00;99.90;;;;;;4929791;29;20028;-77
2023/07/31 02:13:04;;;;;;;12.55;7.63;;;20.00;99.90;;;;;;4919169;29;20036;-76
2023/07/31 02:15:31;;;;;;;12.55;7.70;;;20.00;99.90;;;;;;4936292;29;20550;-74
2023/07/31 02:17:57;;;;;;;17.23;7.80;;;20.00;99.90;;;;;;4915907;29;20080;-75
2023/07/31 02:20:22;;;;;;;14.82;8.05;;;20.10;99.90;;;;;;4915191;29;20020;-79
2023/07/31 02:22:48;;;;;;;10.18;6.88;;;20.00;99.90;;;;;;4935743;29;20056;-77
2023/07/31 02:25:14;;;;;;;12.30;7.50;;;20.00;99.90;;;;;;4919079;29;20028;-77
2023/07/31 02:27:40;;;;;;;15.77;7.03;;;20.00;99.90;;;;;;4936001;29;20534;-79
2023/07/31 02:30:06;;;;;;;10.82;7.53;;;20.00;99.90;;;;;;4935894;29;20089;-77
2023/07/31 02:32:32;;;;;;;12.15;6.75;;;20.00;99.90;;;;;;4925258;29;20024;-78
2023/07/31 02:34:58;;;;;;;13.82;7.80;;;20.10;99.90;;;;;;4931568;29;20035;-79
2023/07/31 02:37:26;;;;;;;10.02;6.97;;;20.10;99.90;;;;;;4899545;29;20044;-79
2023/07/31 02:39:52;;;;;;;11.85;7.40;;;20.00;99.90;;;;;;4934083;29;20027;-78
2023/07/31 02:42:17;;;;;;;10.68;7.28;;;20.10;99.90;;;;;;4935924;29;20032;-79
2023/07/31 02:44:43;;;;;;;16.60;7.90;;;20.00;99.90;;;;;;4918208;29;20466;-80
2023/07/31 02:47:09;;;;;;;11.60;7.30;;;20.00;99.90;;;;;;4918228;29;20075;-79
2023/07/31 02:49:35;;;;;;;12.77;7.75;;;20.00;99.90;;;;;;4934910;29;20028;-78
2023/07/31 02:52:01;;;;;;;10.82;6.97;;;20.00;99.90;;;;;;4918469;29;20365;-78
2023/07/31 02:54:27;;;;;;;10.63;6.80;;;20.00;99.90;;;;;;4935292;29;20032;-79
2023/07/31 02:56:52;;;;;;;11.80;7.03;;;20.00;99.90;;;;;;4906028;29;20026;-75
2023/07/31 02:59:18;;;;;;;11.98;6.88;;;20.00;99.90;;;;;;4916782;29;20065;-78
2023/07/31 03:01:44;;;;;;;12.63;7.80;;;20.00;99.90;;;;;;4918630;29;20407;-79
2023/07/31 03:04:10;;;;;;;12.82;7.68;;;20.00;99.90;;;;;;4935223;29;20035;-78
2023/07/31 03:06:36;;;;;;;13.13;7.65;;;20.00;99.90;;;;;;4935370;29;20036;-79
2023/07/31 03:09:02;;;;;;;14.05;7.93;;;20.00;99.90;;;;;;4917947;29;20043;-79
2023/07/31 03:11:28;;;;;;;12.35;8.20;;;20.00;99.90;;;;;;4935321;29;20059;-79
2023/07/31 03:13:54;;;;;;;13.73;8.43;;;20.00;99.90;;;;;;4917574;29;20055;-76
2023/07/31 03:16:20;;;;;;;16.40;8.85;;;20.00;99.90;;;;;;4914755;29;20476;-77
2023/07/31 03:18:45;;;;;;;13.05;8.38;;;19.90;99.90;;;;;;4929265;29;20080;-75
2023/07/31 03:21:12;;;;;;;15.40;8.40;;;19.90;99.90;;;;;;4934686;29;20090;-79
2023/07/31 03:23:38;;;;;;;12.93;8.30;;;19.90;99.90;;;;;;4935275;29;20035;-79
2023/07/31 03:26:07;;;;;;;20.25;8.77;;;19.90;99.90;;;;;;4918028;29;20098;-77
2023/07/31 03:28:33;;;;;;;13.80;8.32;;;19.90;99.90;;;;;;4935042;29;20036;-78
2023/07/31 03:31:00;;;;;;;13.48;9.00;;;19.90;99.90;;;;;;4917861;29;20042;-75
2023/07/31 03:33:26;;;;;;;13.52;9.18;;;19.80;99.90;;;;;;4934791;29;20024;-77
2023/07/31 03:35:52;;;;;;;15.70;9.57;;;19.80;99.90;;;;;;4926287;29;20092;-75
2023/07/31 03:38:18;;;;;;;15.27;10.52;;;19.80;99.90;;;;;;4933239;29;20035;-78
2023/07/31 03:40:44;;;;;;;15.98;9.70;;;20.00;99.90;;;;;;4934981;29;20118;-77
2023/07/31 03:43:11;;;;;;;14.23;9.35;;;20.50;99.90;;;;;;4934573;29;20015;-75
2023/07/31 03:45:38;;;;;;;12.60;8.63;;;20.60;99.90;;;;;;4917797;29;20201;-77
2023/07/31 03:48:04;;;;;;;11.98;8.60;;;20.80;99.90;;;;;;4934707;29;20032;-76
2023/07/31 03:50:30;;;;;;;15.63;9.40;;;21.30;99.90;;;;;;4902031;29;20039;-78
2023/07/31 03:52:56;;;;;;;14.52;8.90;;;21.20;99.90;;;;;;4932831;29;20036;-79
2023/07/31 03:55:22;;;;;;;14.85;8.27;;;21.60;99.90;;;;;;4923029;29;20477;-77
2023/07/31 03:57:48;;;;;;;16.20;8.05;;;22.20;99.90;;;;;;4929631;29;20075;-77
2023/07/31 04:00:14;;;;;;;13.60;7.43;;;22.50;99.90;;;;;;4907701;29;20040;-77
2023/07/31 04:02:40;;;;;;;10.30;7.40;;;22.90;99.90;;;;;;4914383;29;20039;-75
2023/07/31 04:05:07;;;;;;;12.02;7.45;;;23.70;99.90;;;;;;4920402;29;20020;-76
2023/07/31 04:07:33;;;;;;;14.35;6.70;;;23.50;99.90;;;;;;4931740;29;20044;-76
2023/07/31 04:10:00;;;;;;;10.10;6.80;;;23.90;99.90;;;;;;4926976;29;20032;-75
2023/07/31 04:12:26;;;;;;;11.25;7.35;;;24.20;99.90;;;;;;4932337;29;20126;-78
2023/07/31 04:14:52;;;;;;;13.90;7.45;;;24.60;99.90;;;;;;4921280;29;20078;-76
2023/07/31 04:17:18;;;;;;;15.52;7.82;;;24.90;99.90;;;;;;4937499;29;20110;-79
2023/07/31 04:19:44;;;;;;;11.20;8.00;;;25.20;99.90;;;;;;4938268;29;20024;-78
2023/07/31 04:22:09;;;;;;;13.35;7.80;;;25.50;99.90;;;;;;4937862;29;20071;-74
2023/07/31 04:24:35;;;;;;;12.57;7.93;;;25.50;99.90;;;;;;4929465;29;20028;-78
2023/07/31 04:27:01;;;;;;;10.38;6.93;;;25.70;99.90;;;;;;4917307;29;20036;-79
2023/07/31 04:29:27;;;;;;;13.93;7.55;;;25.50;99.90;;;;;;4938300;29;20048;-73
2023/07/31 04:31:53;;;;;;;14.43;7.07;;;25.90;99.90;;;;;;4937883;29;20386;-78
2023/07/31 04:34:18;;;;;;;11.32;6.63;;;25.90;99.90;;;;;;4938385;29;20028;-78
2023/07/31 04:36:44;;;;;;;10.82;6.88;;;26.00;99.90;;;;;;4934662;29;20024;-77
2023/07/31 04:39:10;;;;;;;13.25;6.70;;;26.30;99.90;;;;;;4913773;29;20427;-77
2023/07/31 04:41:36;;;;;;;13.70;8.10;;;27.30;99.90;;;;;;4920646;29;20404;-78
2023/07/31 04:44:03;;;;;;;13.23;7.32;;;26.50;99.90;;;;;;4938043;29;20031;-78
2023/07/31 04:46:32;;;;;;;18.85;6.97;;;27.40;99.90;;;;;;4937413;29;20049;-79
2023/07/31 04:48:58;;;;;;;5.38;3.67;;;28.00;99.90;;;;;;4926323;29;20428;-80
2023/07/31 04:51:23;;;;;;;5.82;3.63;;;27.70;99.90;;;;;;4931468;29;20032;-77
2023/07/31 04:53:49;;;;;;;6.22;3.72;;;28.40;99.90;;;;;;4937465;29;20470;-78
2023/07/31 04:56:16;;;;;;;6.63;3.47;;;28.50;99.90;;;;;;4937635;29;20110;-76
2023/07/31 04:58:41;;;;;;;4.07;2.92;;;28.60;99.90;;;;;;4925711;29;20032;-79
2023/07/31 05:01:07;;;;;;;7.25;3.72;;;28.40;99.90;;;;;;4920523;29;20034;-74
2023/07/31 05:03:33;;;;;;;7.35;3.15;;;28.70;99.90;;;;;;4937046;29;20039;-80
2023/07/31 05:05:59;;;;;;;5.53;3.25;;;28.30;99.90;;;;;;4937199;29;20087;-78
2023/07/31 05:08:25;;;;;;;6.05;3.17;;;27.90;99.90;;;;;;4937250;29;20039;-75
2023/07/31 05:10:51;;;;;;;5.53;3.20;;;26.50;99.90;;;;;;4936968;29;20055;-79
2023/07/31 05:13:16;;;;;;;6.25;3.00;;;25.60;99.90;;;;;;4934584;29;20044;-73
2023/07/31 05:15:42;;;;;;;5.05;2.95;;;25.10;99.90;;;;;;4936674;29;20066;-79
2023/07/31 05:18:08;;;;;;;3.50;2.72;;;24.50;99.90;;;;;;4936862;29;20289;-77
2023/07/31 05:20:34;;;;;;;5.88;2.53;;;23.70;99.90;;;;;;4936455;29;20027;-78
2023/07/31 05:22:59;;;;;;;7.60;2.67;;;23.80;99.90;;;;;;4928977;29;20547;-78
2023/07/31 05:25:25;;;;;;;5.57;2.58;;;23.80;99.90;;;;;;4934001;29;20539;-76
2023/07/31 05:27:51;;;;;;;5.63;2.72;;;23.80;99.90;;;;;;4937233;29;20038;-78
2023/07/31 05:30:17;;;;;;;5.10;3.00;;;23.50;99.90;;;;;;4937037;29;20119;-73
2023/07/31 05:32:43;;;;;;;3.17;2.38;;;23.70;99.90;;;;;;4918154;29;20391;-73
2023/07/31 05:35:09;;;;;;;3.15;2.42;;;23.70;99.90;;;;;;4936901;29;20028;-76
2023/07/31 05:37:35;;;;;;;5.10;2.78;;;23.90;99.90;;;;;;4916881;29;20453;-74
2023/07/31 05:40:00;;;;;;;6.72;2.90;;;24.00;99.90;;;;;;4936799;29;20027;-78
2023/07/31 05:42:26;;;;;;;5.07;2.90;;;23.80;99.90;;;;;;4932033;29;20384;-78
2023/07/31 05:44:52;;;;;;;5.82;2.60;;;23.70;99.90;;;;;;4933906;29;20031;-77
2023/07/31 05:47:18;;;;;;;3.60;2.50;;;23.80;99.90;;;;;;4935964;29;20119;-79
2023/07/31 05:49:44;;;;;;;3.17;2.47;;;24.00;99.90;;;;;;4936025;29;20024;-72
2023/07/31 05:52:10;;;;;;;5.90;2.42;;;23.90;99.90;;;;;;4922586;29;20115;-74
2023/07/31 05:54:35;;;;;;;3.97;2.10;;;24.10;99.90;;;;;;4927576;29;20524;-74
2023/07/31 05:57:01;;;;;;;4.20;2.33;;;24.10;99.90;;;;;;4935203;29;20032;-78
2023/07/31 05:59:27;;;;;;;2.63;2.00;;;24.40;99.90;;;;;;4935802;29;20154;-74
2023/07/31 06:01:53;;;;;;;4.80;2.38;;;24.50;99.90;;;;;;4933833;29;20023;-77
2023/07/31 06:04:19;;;;;;;4.35;2.63;;;24.70;99.90;;;;;;4932342;29;20475;-79
2023/07/31 06:06:45;;;;;;;3.70;2.50;;;24.70;99.90;;;;;;4931945;29;20111;-77
2023/07/31 06:09:11;;;;;;;4.70;2.70;;;24.80;99.90;;;;;;4920711;29;20099;-78
2023/07/31 06:11:37;;;;;;;3.70;2.53;;;25.20;99.90;;;;;;4919111;29;20040;-78
2023/07/31 06:14:03;;;;;;;2.50;2.10;;;25.20;99.90;;;;;;4935299;29;20035;-78
2023/07/31 06:16:28;;;;;;;4.88;2.80;;;25.40;99.90;;;;;;4914808;29;20078;-73
2023/07/31 06:18:54;;;;;;;4.88;2.28;;;25.70;99.90;;;;;;4936101;29;20038;-73
2023/07/31 06:21:20;;;;;;;3.28;2.35;;;25.80;99.90;;;;;;4936088;29;20446;-77
2023/07/31 06:23:46;;;;;;;4.78;2.70;;;25.70;99.90;;;;;;4935262;29;20047;-77
2023/07/31 06:26:12;;;;;;;4.93;2.95;;;25.60;99.90;;;;;;4904477;29;20028;-76
2023/07/31 06:28:38;;;;;;;5.30;2.53;;;25.70;99.90;;;;;;4926770;29;20036;-77
2023/07/31 06:31:03;;;;;;;4.90;2.60;;;25.90;99.90;;;;;;4935593;29;20082;-74
2023/07/31 06:33:29;;;;;;;2.70;1.90;;;25.90;99.90;;;;;;4934704;29;20472;-78
2023/07/31 06:35:55;;;;;;;3.15;2.05;;;25.70;99.90;;;;;;4934303;29;20509;-77
2023/07/31 06:38:26;;;;;;;2.88;1.83;;;25.60;99.90;;;;;;4910150;29;20099;-73
2023/07/31 06:40:52;;;;;;;5.22;2.15;;;25.70;99.90;;;;;;4923657;29;20034;-78
2023/07/31 06:43:18;;;;;;;2.88;2.03;;;25.60;99.90;;;;;;4935457;29;20392;-78
2023/07/31 06:45:44;;;;;;;3.33;2.30;;;25.50;99.90;;;;;;4935298;29;20031;-79
2023/07/31 06:48:10;;;;;;;16.27;2.70;;;25.30;99.90;;;;;;4935463;29;20039;-79
2023/07/31 06:50:36;;;;;;;3.15;1.92;;;25.20;99.90;;;;;;4934197;29;20024;-79
2023/07/31 06:53:02;;;;;;;4.00;2.25;;;25.20;99.90;;;;;;4934490;29;20067;-78
2023/07/31 06:55:28;;;;;;;3.83;2.13;;;25.40;99.90;;;;;;4933140;29;20060;-72
2023/07/31 06:57:55;;;;;;;5.57;2.58;;;25.30;99.90;;;;;;4932868;29;20039;-78
2023/07/31 07:00:22;;;;;;;3.30;2.30;;;25.60;99.90;;;;;;4928574;29;20115;-77
2023/07/31 07:02:49;;;;;;;3.40;2.17;;;25.80;99.90;;;;;;4934472;29;20027;-77
2023/07/31 07:05:16;;;;;;;3.47;2.85;;;25.60;99.90;;;;;;4928912;29;20107;-79
2023/07/31 07:07:43;;;;;;;4.78;2.55;;;25.60;99.90;;;;;;4930119;29;20460;-79
2023/07/31 07:10:09;;;;;;;4.28;2.42;;;25.50;99.90;;;;;;4935457;29;20047;-78
2023/07/31 07:12:35;;;;;;;4.60;2.50;;;25.50;99.90;;;;;;4927839;29;20032;-78
2023/07/31 07:15:02;;;;;;;3.92;2.47;;;25.40;99.90;;;;;;4924807;29;20042;-79
2023/07/31 07:17:31;;;;;;;3.55;2.28;;;25.30;99.90;;;;;;4929841;29;20043;-77
2023/07/31 07:19:57;;;;;;;2.72;2.15;;;25.40;99.90;;;;;;4933012;29;20180;-78
2023/07/31 07:22:23;;;;;;;3.45;2.40;;;25.30;99.90;;;;;;4926060;29;20048;-79
2023/07/31 07:24:49;;;;;;;4.65;2.53;;;25.40;99.90;;;;;;4932126;29;20043;-79
2023/07/31 07:27:15;;;;;;;7.28;2.10;;;25.50;99.90;;;;;;4919777;29;20035;-78
2023/07/31 07:29:41;;;;;;;2.72;2.10;;;25.50;99.90;;;;;;4930477;29;20484;-78
2023/07/31 07:32:08;;;;;;;5.15;2.60;;;25.80;99.90;;;;;;4944955;29;20090;-79
2023/07/31 07:34:34;;;;;;;5.53;2.70;;;26.20;99.90;;;;;;4930703;29;20030;-78
2023/07/31 07:37:00;;;;;;;5.00;1.90;;;26.30;99.90;;;;;;4928908;29;20020;-78
2023/07/31 07:39:26;;;;;;;2.55;1.90;;;26.40;99.90;;;;;;4929479;29;20412;-80
2023/07/31 07:41:53;;;;;;;3.80;2.33;;;26.80;99.90;;;;;;4930149;29;20032;-80
2023/07/31 07:44:18;;;;;;;3.00;2.15;;;26.80;99.90;;;;;;4934433;29;20032;-79
2023/07/31 07:46:44;;;;;;;2.78;2.00;;;27.00;99.90;;;;;;4934630;29;20383;-79
2023/07/31 07:49:10;;;;;;;5.07;2.00;;;26.90;99.90;;;;;;4927932;29;20036;-79
2023/07/31 07:51:36;;;;;;;5.00;2.33;;;26.90;99.90;;;;;;4934969;29;20087;-80
2023/07/31 07:54:02;;;;;;;3.90;2.05;;;26.80;99.90;;;;;;4935812;29;20043;-78
2023/07/31 07:56:28;;;;;;;3.22;1.80;;;26.90;99.90;;;;;;4912457;29;20225;-73
2023/07/31 07:58:55;;;;;;;2.30;1.67;;;27.10;99.90;;;;;;4921594;29;20122;-79
2023/07/31 08:01:21;;;;;;;2.97;1.80;;;27.50;99.90;;;;;;4931948;29;20024;-79
2023/07/31 08:03:47;;;;;;;3.00;1.70;;;27.30;99.90;;;;;;4933827;29;20028;-80
2023/07/31 08:06:14;;;;;;;4.10;2.15;;;27.00;99.90;;;;;;4935091;29;20074;-79
2023/07/31 08:08:39;;;;;;;2.88;1.63;;;27.10;99.90;;;;;;4933074;29;20036;-78
2023/07/31 08:11:06;;;;;;;3.45;1.98;;;27.70;99.90;;;;;;4933409;29;20410;-79
2023/07/31 08:13:32;;;;;;;4.38;2.08;;;27.50;99.90;;;;;;4918535;29;20035;-77
2023/07/31 08:15:58;;;;;;;3.60;2.67;;;27.20;99.90;;;;;;4935711;29;20387;-75
2023/07/31 08:18:24;;;;;;;3.17;1.88;;;27.00;99.90;;;;;;4935867;29;20028;-78
2023/07/31 08:20:49;;;;;;;5.35;2.00;;;27.10;99.90;;;;;;4934816;29;20016;-72
2023/07/31 08:23:15;;;;;;;2.25;1.90;;;26.90;99.90;;;;;;4931511;29;20452;-77
2023/07/31 08:25:42;;;;;;;2.40;1.60;;;26.80;99.90;;;;;;4928741;29;20035;-76
2023/07/31 08:28:08;;;;;;;2.00;1.80;;;27.20;99.90;;;;;;4904853;29;20040;-78
2023/07/31 08:30:34;;;;;;;7.20;1.92;;;27.50;99.90;;;;;;4928022;29;20027;-76
2023/07/31 08:33:00;;;;;;;2.67;1.65;;;27.50;99.90;;;;;;4935406;29;20538;-71
2023/07/31 08:35:28;;;;;;;4.50;1.88;;;27.50;99.90;;;;;;4928223;29;20020;-73
2023/07/31 08:37:54;;;;;;;5.68;2.38;;;27.40;99.90;;;;;;4927155;29;20034;-75
2023/07/31 08:40:21;;;;;;;5.47;1.83;;;27.20;99.90;;;;;;4926651;29;20020;-73
2023/07/31 08:42:49;;;;;;;4.85;1.83;;;27.20;99.90;;;;;;4933543;29;20110;-76
2023/07/31 08:45:16;;;;;;;5.05;1.60;;;27.50;99.90;;;;;;4924858;29;20117;-76
2023/07/31 08:47:47;;;;;;;1.98;1.60;;;27.60;99.90;;;;;;4899891;29;20448;-73
2023/07/31 08:50:15;;;;;;;2.05;1.60;;;27.80;99.90;;;;;;4924144;29;20036;-78
2023/07/31 08:52:40;;;;;;;4.03;1.80;;;27.80;99.90;;;;;;4935110;29;20036;-78
2023/07/31 08:55:07;;;;;;;3.85;1.80;;;27.60;99.90;;;;;;4934629;29;20024;-76
2023/07/31 08:57:38;;;;;;;3.03;2.00;;;27.40;99.90;;;;;;4916274;29;20369;-74
2023/07/31 09:00:06;;;;;;;4.07;1.98;;;27.20;99.90;;;;;;4917632;29;20040;-78
2023/07/31 09:02:39;;;;;;;5.57;1.83;;;27.40;99.90;;;;;;4929809;29;20114;-74
2023/07/31 09:05:07;;;;;;;3.47;2.10;;;27.60;99.90;;;;;;4922626;29;20473;-76
2023/07/31 09:07:35;;;;;;;4.57;1.65;;;27.70;99.90;;;;;;4905762;29;20050;-75
2023/07/31 09:10:02;;;;;;;3.95;1.98;;;27.80;99.90;;;;;;4932082;29;20087;-77
2023/07/31 09:12:28;;;;;;;2.38;1.63;;;27.80;99.90;;;;;;4918140;29;20055;-76
2023/07/31 09:14:54;;;;;;;4.25;1.88;;;27.80;99.90;;;;;;4921143;29;20444;-77
2023/07/31 09:17:34;;;;;;;3.92;2.00;;;27.60;99.90;;;;;;4916287;29;20111;-71
2023/07/31 09:20:19;;;;;;;2.90;1.67;;;28.00;99.90;;;;;;4938355;29;20024;-75
2023/07/31 09:22:47;;;;;;;6.03;1.90;;;27.90;99.90;;;;;;4932444;29;20052;-78
2023/07/31 09:25:17;;;;;;;4.20;1.65;;;27.80;99.90;;;;;;4929660;29;20494;-75
2023/07/31 09:27:47;;;;;;;2.72;1.60;;;27.80;99.90;;;;;;4928764;29;20039;-71
2023/07/31 09:30:14;;;;;;;3.03;1.60;;;27.70;99.90;;;;;;4929666;29;20115;-77
2023/07/31 09:32:40;;;;;;;4.97;1.55;;;27.80;99.90;;;;;;4923265;29;20039;-75
2023/07/31 09:35:28;;;;;;;2.00;1.30;;;27.80;99.90;;;;;;4931965;29;20036;-72
2023/07/31 09:37:58;;;;;;;3.10;1.77;;;27.70;99.90;;;;;;4928851;29;20028;-77
2023/07/31 09:40:28;;;;;;;3.55;1.67;;;27.80;99.90;;;;;;4926334;29;20088;-76
2023/07/31 09:43:19;;;;;;;4.63;1.80;;;27.90;99.90;;;;;;4916688;29;20096;-77
2023/07/31 09:45:46;;;;;;;3.17;1.77;;;27.80;99.90;;;;;;4875685;29;20053;-73
2023/07/31 09:48:15;;;;;;;7.55;1.75;;;27.80;99.90;;;;;;4879299;29;20052;-77
2023/07/31 09:50:46;;;;;;;3.70;1.95;;;27.80;99.90;;;;;;4874398;29;20049;-75
2023/07/31 09:53:13;;;;;;;6.60;2.10;;;27.90;99.90;;;;;;4879101;29;20148;-72
2023/07/31 09:55:40;;;;;;;2.97;1.45;;;27.90;99.90;;;;;;4877931;29;20335;-75
2023/07/31 09:58:08;;;;;;;3.42;1.35;;;27.90;99.90;;;;;;4869597;29;20038;-73
2023/07/31 10:00:35;;;;;;;3.72;1.75;;;28.00;99.90;;;;;;4871951;29;20028;-73
2023/07/31 10:03:09;;;;;;;2.40;1.38;;;27.90;99.90;;;;;;4871252;29;20501;-74
2023/07/31 10:05:42;;;;;;;3.63;1.73;;;28.00;99.90;;;;;;4863552;29;20490;-76
2023/07/31 10:08:13;;;;;;;2.97;1.92;;;28.20;99.90;;;;;;4878711;29;20036;-72
2023/07/31 10:10:43;;;;;;;7.72;2.38;;;28.40;99.90;;;;;;4881290;29;20049;-72
2023/07/31 10:13:09;;;;;;;12.20;2.03;;;28.30;99.90;;;;;;4879020;29;20041;-75
2023/07/31 10:15:36;;;;;;;7.35;1.60;;;28.00;99.90;;;;;;4878171;29;20425;-71
2023/07/31 10:18:02;;;;;;;5.38;1.60;;;28.00;99.90;;;;;;4878755;29;20033;-71
2023/07/31 10:20:29;;;;;;;2.75;1.50;;;28.10;99.90;;;;;;4878626;29;20076;-75
2023/07/31 10:22:56;;;;;;;3.20;1.77;;;28.10;99.90;;;;;;4912277;29;20111;-73
2023/07/31 10:25:23;;;;;;;2.17;1.65;;;28.10;99.90;;;;;;4935894;29;20035;-77
2023/07/31 10:27:50;;;;;;;1.67;1.33;;;28.10;99.90;;;;;;4936132;29;20563;-77
2023/07/31 10:30:18;;;;;;;3.92;1.90;;;28.30;99.90;;;;;;4935859;29;20106;-74
2023/07/31 10:32:46;;;;;;;3.83;1.67;;;28.20;99.90;;;;;;4935867;29;20368;-77
2023/07/31 10:35:12;;;;;;;4.25;1.83;;;28.30;99.90;;;;;;4935987;29;20448;-73
2023/07/31 10:37:42;;;;;;;4.40;1.95;;;28.30;99.90;;;;;;4935681;29;20055;-76
2023/07/31 10:40:08;;;;;;;2.90;1.40;;;28.20;99.90;;;;;;4936052;29;20043;-77
2023/07/31 10:42:37;;;;;;;1.48;1.35;;;28.20;99.90;;;;;;4935768;29;20032;-75
2023/07/31 10:45:06;;;;;;;2.42;1.33;;;28.20;99.90;;;;;;4935646;29;20019;-76
2023/07/31 10:47:38;;;;;;;6.72;2.05;;;28.20;99.90;;;;;;4935934;29;20032;-77
2023/07/31 10:50:21;;;;;;;2.70;1.50;;;28.30;99.90;;;;;;4915158;29;20123;-73
2023/07/31 10:53:03;;;;;;;2.33;1.40;;;28.50;99.90;;;;;;4931327;29;20071;-73
2023/07/31 10:55:29;;;;;;;;;;;28.50;99.90;;;;;;4925578;29;20094;-77
2023/07/31 10:57:56;;;;;;;2.85;1.70;;;28.40;99.90;;;;;;4935199;29;19910;-77
2023/07/31 11:00:28;;;;;;;3.63;1.55;;;28.50;99.90;;;;;;4933245;29;20485;-77
2023/07/31 11:03:01;;;;;;;;;;;28.40;99.90;;;;;;4933922;29;20047;-77
2023/07/31 11:05:59;;;;;;;4.95;1.85;;;28.50;99.90;;;;;;4932952;29;20283;-76
2023/07/31 11:08:29;;;;;;;4.10;1.40;;;28.50;99.90;;;;;;4933863;29;20416;-78
2023/07/31 11:11:01;;;;;;;2.40;1.55;;;28.60;99.90;;;;;;4932726;29;20119;-77
2023/07/31 11:13:27;;;;;;;5.18;1.90;;;28.80;99.90;;;;;;4935121;29;20040;-77
2023/07/31 11:15:53;;;;;;;5.38;1.50;;;28.80;99.90;;;;;;4932921;29;20034;-75
2023/07/31 11:18:19;;;;;;;2.15;1.67;;;28.80;99.90;;;;;;4931560;29;20119;-74
2023/07/31 11:20:46;;;;;;;2.55;1.20;;;28.80;99.90;;;;;;4933743;29;20423;-77
2023/07/31 11:23:12;;;;;;;2.33;1.60;;;28.80;99.90;;;;;;4921920;29;20535;-77
2023/07/31 11:25:41;;;;;;;2.38;1.30;;;29.00;99.90;;;;;;4916935;29;20027;-74
2023/07/31 11:28:10;;;;;;;2.30;1.20;;;29.10;99.90;;;;;;4921566;29;20050;-77
2023/07/31 11:30:36;;;;;;;3.85;1.92;;;28.70;99.90;;;;;;4931899;29;20103;-78
2023/07/31 11:33:04;;;;;;;4.72;1.95;;;28.60;99.90;;;;;;4931495;29;20031;-74
2023/07/31 11:35:35;;;;;;;5.40;1.50;;;28.60;99.90;;;;;;4923676;29;20172;-74
2023/07/31 11:38:02;;;;;;;1.73;1.30;;;28.70;99.90;;;;;;4926825;29;20031;-78
2023/07/31 11:40:29;;;;;;;2.08;1.60;;;28.60;99.90;;;;;;4931141;29;20530;-77
2023/07/31 11:42:56;;;;;;;7.10;1.67;;;28.30;99.90;;;;;;4914983;29;20380;-74
2023/07/31 11:45:26;;;;;;;2.80;1.50;;;28.50;99.90;;;;;;4932179;29;20115;-78
2023/07/31 11:47:53;;;;;;;5.20;2.00;;;28.50;99.90;;;;;;4922848;29;20471;-78
2023/07/31 11:50:19;;;;;;;9.25;1.52;;;28.70;99.90;;;;;;4934121;29;20037;-78
2023/07/31 11:52:50;;;;;;;2.28;1.52;;;28.80;99.90;;;;;;4934680;29;20122;-75
2023/07/31 11:55:16;;;;;;;4.10;1.80;;;29.00;99.90;;;;;;4935100;29;20107;-77
2023/07/31 11:57:44;;;;;;;4.07;1.52;;;28.70;99.90;;;;;;4934593;29;20020;-75
2023/07/31 12:00:13;;;;;;;4.40;1.73;;;28.60;99.90;;;;;;4934696;29;20058;-74
2023/07/31 12:02:41;;;;;;;4.93;2.05;;;28.60;99.90;;;;;;4934849;29;20024;-78
2023/07/31 12:05:12;;;;;;;3.80;1.75;;;28.60;99.90;;;;;;4934843;29;20028;-75
2023/07/31 12:07:49;;;;;;;4.18;1.75;;;28.80;99.90;;;;;;4934678;29;20040;-77
2023/07/31 12:10:29;;;;;;;6.72;2.00;;;29.00;99.90;;;;;;4934543;29;20043;-77
2023/07/31 12:13:04;;;;;;;4.25;2.17;;;28.80;99.90;;;;;;4933100;29;20081;-75
2023/07/31 12:15:38;;;;;;;3.35;1.60;;;28.70;99.90;;;;;;4934010;29;20470;-77
2023/07/31 12:18:06;;;;;;;2.95;1.70;;;28.50;99.90;;;;;;4916193;29;20031;-75
2023/07/31 12:20:32;;;;;;;2.85;1.65;;;28.40;99.90;;;;;;4935792;29;20484;-75
2023/07/31 12:22:58;;;;;;;3.40;1.73;;;28.50;99.90;;;;;;4945459;29;20056;-74
2023/07/31 12:25:32;;;;;;;4.00;1.60;;;28.60;99.90;;;;;;4919807;29;20032;-75
2023/07/31 12:28:11;;;;;;;3.35;1.60;;;28.90;99.90;;;;;;4927982;29;20032;-71
2023/07/31 12:30:39;;;;;;;2.63;1.45;;;28.90;99.90;;;;;;4907833;29;20024;-74
2023/07/31 12:33:11;;;;;;;3.83;1.70;;;29.10;99.90;;;;;;4938763;29;20024;-74
2023/07/31 12:35:40;;;;;;;2.85;1.50;;;29.00;99.90;;;;;;4931761;29;20404;-74
2023/07/31 12:38:06;;;;;;;3.08;1.52;;;29.10;99.90;;;;;;4933370;29;20396;-75
2023/07/31 12:40:32;;;;;;;5.05;2.08;;;29.00;99.90;;;;;;4932863;29;20040;-74
2023/07/31 12:43:03;;;;;;;3.85;1.52;;;28.90;99.90;;;;;;4924560;29;20056;-78
2023/07/31 12:45:30;;;;;;;2.72;1.58;;;28.90;99.90;;;;;;4924145;29;20040;-76
2023/07/31 12:47:56;;;;;;;4.95;1.67;;;29.00;99.90;;;;;;4931853;29;20023;-76